sensor_id;sensor_type;location;lat;lon;timestamp;temperature;humidity
11089;DHT22;5598;48.648;8.908;2023-06-14T00:01:49;16.20;57.90
11089;DHT22;5598;48.648;8.908;2023-06-14T00:04:16;16.10;57.90
11089;DHT22;5598;48.648;8.908;2023-06-14T00:06:44;16.10;57.90
11089;DHT22;5598;48.648;8.908;2023-06-14T00:09:11;16.10;58.30
11089;DHT22;5598;48.648;8.908;2023-06-14T00:11:41;16.10;57.90
11089;DHT22;5598;48.648;8.908;2023-06-14T00:14:08;16.20;58.00
11089;DHT22;5598;48.648;8.908;2023-06-14T00:16:35;16.10;58.00
11089;DHT22;5598;48.648;8.908;2023-06-14T00:19:04;16.00;57.60
11089;DHT22;5598;48.648;8.908;2023-06-14T00:21:31;15.90;58.50
11089;DHT22;5598;48.648;8.908;2023-06-14T00:23:58;15.90;59.00
11089;DHT22;5598;48.648;8.908;2023-06-14T00:26:25;15.90;59.60
11089;DHT22;5598;48.648;8.908;2023-06-14T00:28:54;15.80;60.00
11089;DHT22;5598;48.648;8.908;2023-06-14T00:31:22;15.70;59.70
11089;DHT22;5598;48.648;8.908;2023-06-14T00:33:49;15.60;59.60
11089;DHT22;5598;48.648;8.908;2023-06-14T00:36:15;15.60;59.60
11089;DHT22;5598;48.648;8.908;2023-06-14T00:38:42;15.40;59.20
11089;DHT22;5598;48.648;8.908;2023-06-14T00:41:09;15.30;59.50
11089;DHT22;5598;48.648;8.908;2023-06-14T00:43:36;15.10;59.80
11089;DHT22;5598;48.648;8.908;2023-06-14T00:46:04;15.10;59.80
11089;DHT22;5598;48.648;8.908;2023-06-14T00:48:31;15.00;59.70
11089;DHT22;5598;48.648;8.908;2023-06-14T00:51:00;15.00;60.00
11089;DHT22;5598;48.648;8.908;2023-06-14T00:53:29;15.10;60.30
11089;DHT22;5598;48.648;8.908;2023-06-14T00:55:57;15.10;60.90
11089;DHT22;5598;48.648;8.908;2023-06-14T00:58:24;15.10;60.60
11089;DHT22;5598;48.648;8.908;2023-06-14T01:00:51;15.00;60.30
11089;DHT22;5598;48.648;8.908;2023-06-14T01:03:19;14.90;60.10
11089;DHT22;5598;48.648;8.908;2023-06-14T01:05:48;14.80;60.10
11089;DHT22;5598;48.648;8.908;2023-06-14T01:08:24;14.70;60.50
11089;DHT22;5598;48.648;8.908;2023-06-14T01:10:56;14.60;60.70
11089;DHT22;5598;48.648;8.908;2023-06-14T01:13:29;14.70;61.00
11089;DHT22;5598;48.648;8.908;2023-06-14T01:15:59;14.70;60.70
11089;DHT22;5598;48.648;8.908;2023-06-14T01:18:28;14.70;60.10
11089;DHT22;5598;48.648;8.908;2023-06-14T01:20:55;14.70;60.20
11089;DHT22;5598;48.648;8.908;2023-06-14T01:23:24;14.60;60.80
11089;DHT22;5598;48.648;8.908;2023-06-14T01:25:58;14.60;61.00
11089;DHT22;5598;48.648;8.908;2023-06-14T01:28:29;14.60;60.70
11089;DHT22;5598;48.648;8.908;2023-06-14T01:31:00;14.50;60.50
11089;DHT22;5598;48.648;8.908;2023-06-14T01:33:29;14.50;61.60
11089;DHT22;5598;48.648;8.908;2023-06-14T01:35:57;14.50;61.60
11089;DHT22;5598;48.648;8.908;2023-06-14T01:38:26;14.50;61.70
11089;DHT22;5598;48.648;8.908;2023-06-14T01:40:55;14.50;61.30
11089;DHT22;5598;48.648;8.908;2023-06-14T01:43:24;14.40;61.30
11089;DHT22;5598;48.648;8.908;2023-06-14T01:45:51;14.50;61.90
11089;DHT22;5598;48.648;8.908;2023-06-14T01:48:20;14.40;62.80
11089;DHT22;5598;48.648;8.908;2023-06-14T01:50:48;14.40;62.60
11089;DHT22;5598;48.648;8.908;2023-06-14T01:53:15;14.40;62.30
11089;DHT22;5598;48.648;8.908;2023-06-14T01:55:43;14.40;62.60
11089;DHT22;5598;48.648;8.908;2023-06-14T01:58:14;14.20;62.90
11089;DHT22;5598;48.648;8.908;2023-06-14T02:00:41;14.20;62.70
11089;DHT22;5598;48.648;8.908;2023-06-14T02:03:08;14.20;63.20
11089;DHT22;5598;48.648;8.908;2023-06-14T02:05:37;14.10;63.80
11089;DHT22;5598;48.648;8.908;2023-06-14T02:08:04;14.10;63.20
11089;DHT22;5598;48.648;8.908;2023-06-14T02:10:31;14.00;63.40
11089;DHT22;5598;48.648;8.908;2023-06-14T02:12:59;13.80;63.40
11089;DHT22;5598;48.648;8.908;2023-06-14T02:15:26;13.80;63.60
11089;DHT22;5598;48.648;8.908;2023-06-14T02:17:59;13.80;63.60
11089;DHT22;5598;48.648;8.908;2023-06-14T02:20:26;13.70;63.10
11089;DHT22;5598;48.648;8.908;2023-06-14T02:22:53;13.70;63.60
11089;DHT22;5598;48.648;8.908;2023-06-14T02:25:20;13.60;63.40
11089;DHT22;5598;48.648;8.908;2023-06-14T02:27:47;13.50;63.70
11089;DHT22;5598;48.648;8.908;2023-06-14T02:30:15;13.50;63.60
11089;DHT22;5598;48.648;8.908;2023-06-14T02:32:42;13.50;63.90
11089;DHT22;5598;48.648;8.908;2023-06-14T02:35:09;13.50;63.90
11089;DHT22;5598;48.648;8.908;2023-06-14T02:37:36;13.60;64.00
11089;DHT22;5598;48.648;8.908;2023-06-14T02:40:04;13.60;63.70
11089;DHT22;5598;48.648;8.908;2023-06-14T02:42:31;13.60;64.00
11089;DHT22;5598;48.648;8.908;2023-06-14T02:44:58;13.60;64.00
11089;DHT22;5598;48.648;8.908;2023-06-14T02:47:27;13.50;64.20
11089;DHT22;5598;48.648;8.908;2023-06-14T02:49:54;13.40;64.50
11089;DHT22;5598;48.648;8.908;2023-06-14T02:52:20;13.40;64.50
11089;DHT22;5598;48.648;8.908;2023-06-14T02:54:47;13.30;65.00
11089;DHT22;5598;48.648;8.908;2023-06-14T02:57:14;13.30;64.90
11089;DHT22;5598;48.648;8.908;2023-06-14T02:59:41;13.30;64.80
11089;DHT22;5598;48.648;8.908;2023-06-14T03:02:08;13.30;65.70
11089;DHT22;5598;48.648;8.908;2023-06-14T03:04:36;13.30;65.50
11089;DHT22;5598;48.648;8.908;2023-06-14T03:07:04;13.30;65.20
11089;DHT22;5598;48.648;8.908;2023-06-14T03:09:35;13.20;64.50
11089;DHT22;5598;48.648;8.908;2023-06-14T03:12:02;13.10;64.50
11089;DHT22;5598;48.648;8.908;2023-06-14T03:14:30;13.00;64.80
11089;DHT22;5598;48.648;8.908;2023-06-14T03:16:57;13.00;64.90
11089;DHT22;5598;48.648;8.908;2023-06-14T03:19:24;13.00;64.70
11089;DHT22;5598;48.648;8.908;2023-06-14T03:21:53;13.00;65.10
11089;DHT22;5598;48.648;8.908;2023-06-14T03:24:22;13.00;65.80
11089;DHT22;5598;48.648;8.908;2023-06-14T03:26:49;13.00;66.60
11089;DHT22;5598;48.648;8.908;2023-06-14T03:29:16;12.90;66.70
11089;DHT22;5598;48.648;8.908;2023-06-14T03:31:56;12.90;66.90
11089;DHT22;5598;48.648;8.908;2023-06-14T03:34:23;12.90;67.20
11089;DHT22;5598;48.648;8.908;2023-06-14T03:36:50;12.80;66.80
11089;DHT22;5598;48.648;8.908;2023-06-14T03:39:18;12.90;66.60
11089;DHT22;5598;48.648;8.908;2023-06-14T03:41:45;12.80;65.90
11089;DHT22;5598;48.648;8.908;2023-06-14T03:44:15;12.80;66.20
11089;DHT22;5598;48.648;8.908;2023-06-14T03:46:42;12.70;66.40
11089;DHT22;5598;48.648;8.908;2023-06-14T03:49:09;12.70;67.40
11089;DHT22;5598;48.648;8.908;2023-06-14T03:51:36;12.70;66.90
11089;DHT22;5598;48.648;8.908;2023-06-14T03:54:03;12.80;67.00
11089;DHT22;5598;48.648;8.908;2023-06-14T03:56:31;12.80;66.90
11089;DHT22;5598;48.648;8.908;2023-06-14T03:58:58;12.70;67.10
11089;DHT22;5598;48.648;8.908;2023-06-14T04:01:25;12.70;68.10
11089;DHT22;5598;48.648;8.908;2023-06-14T04:03:55;12.60;67.50
11089;DHT22;5598;48.648;8.908;2023-06-14T04:06:22;12.50;67.10
11089;DHT22;5598;48.648;8.908;2023-06-14T04:08:50;12.50;67.20
11089;DHT22;5598;48.648;8.908;2023-06-14T04:11:17;12.50;67.10
11089;DHT22;5598;48.648;8.908;2023-06-14T04:13:46;12.50;67.10
11089;DHT22;5598;48.648;8.908;2023-06-14T04:16:13;12.50;67.30
11089;DHT22;5598;48.648;8.908;2023-06-14T04:18:40;12.50;67.60
11089;DHT22;5598;48.648;8.908;2023-06-14T04:21:07;12.50;67.40
11089;DHT22;5598;48.648;8.908;2023-06-14T04:23:34;12.50;67.10
11089;DHT22;5598;48.648;8.908;2023-06-14T04:26:00;12.60;67.30
11089;DHT22;5598;48.648;8.908;2023-06-14T04:28:28;12.60;67.20
11089;DHT22;5598;48.648;8.908;2023-06-14T04:30:58;12.70;67.70
11089;DHT22;5598;48.648;8.908;2023-06-14T04:33:26;12.70;69.90
11089;DHT22;5598;48.648;8.908;2023-06-14T04:35:53;12.70;70.80
11089;DHT22;5598;48.648;8.908;2023-06-14T04:38:22;12.80;70.20
11089;DHT22;5598;48.648;8.908;2023-06-14T04:40:51;12.80;70.20
11089;DHT22;5598;48.648;8.908;2023-06-14T04:43:18;12.80;69.90
11089;DHT22;5598;48.648;8.908;2023-06-14T04:45:53;12.80;69.80
11089;DHT22;5598;48.648;8.908;2023-06-14T04:48:23;12.90;69.40
11089;DHT22;5598;48.648;8.908;2023-06-14T04:50:50;12.90;69.00
11089;DHT22;5598;48.648;8.908;2023-06-14T04:53:19;12.90;69.50
11089;DHT22;5598;48.648;8.908;2023-06-14T04:55:48;12.80;69.80
11089;DHT22;5598;48.648;8.908;2023-06-14T04:58:15;12.90;69.90
11089;DHT22;5598;48.648;8.908;2023-06-14T05:00:42;12.90;70.20
11089;DHT22;5598;48.648;8.908;2023-06-14T05:03:09;12.90;70.30
11089;DHT22;5598;48.648;8.908;2023-06-14T05:05:40;12.90;70.30
11089;DHT22;5598;48.648;8.908;2023-06-14T05:08:07;12.90;70.90
11089;DHT22;5598;48.648;8.908;2023-06-14T05:10:34;13.00;71.30
11089;DHT22;5598;48.648;8.908;2023-06-14T05:13:01;13.00;72.00
11089;DHT22;5598;48.648;8.908;2023-06-14T05:15:28;13.00;71.80
11089;DHT22;5598;48.648;8.908;2023-06-14T05:17:55;13.10;72.00
11089;DHT22;5598;48.648;8.908;2023-06-14T05:20:22;13.10;71.80
11089;DHT22;5598;48.648;8.908;2023-06-14T05:22:52;13.10;72.70
11089;DHT22;5598;48.648;8.908;2023-06-14T05:25:19;13.20;73.30
11089;DHT22;5598;48.648;8.908;2023-06-14T05:27:46;13.20;73.30
11089;DHT22;5598;48.648;8.908;2023-06-14T05:30:14;13.40;73.10
11089;DHT22;5598;48.648;8.908;2023-06-14T05:32:41;13.40;73.20
11089;DHT22;5598;48.648;8.908;2023-06-14T05:35:08;13.40;73.90
11089;DHT22;5598;48.648;8.908;2023-06-14T05:37:35;13.50;74.20
11089;DHT22;5598;48.648;8.908;2023-06-14T05:40:05;13.60;73.90
11089;DHT22;5598;48.648;8.908;2023-06-14T05:42:32;13.70;73.90
11089;DHT22;5598;48.648;8.908;2023-06-14T05:44:59;13.80;74.00
11089;DHT22;5598;48.648;8.908;2023-06-14T05:47:26;13.80;73.40
11089;DHT22;5598;48.648;8.908;2023-06-14T05:49:53;13.90;74.40
11089;DHT22;5598;48.648;8.908;2023-06-14T05:52:19;14.00;74.50
11089;DHT22;5598;48.648;8.908;2023-06-14T05:54:47;14.00;74.30
11089;DHT22;5598;48.648;8.908;2023-06-14T05:57:16;14.10;74.00
11089;DHT22;5598;48.648;8.908;2023-06-14T05:59:42;14.20;73.90
11089;DHT22;5598;48.648;8.908;2023-06-14T06:02:09;14.40;73.70
11089;DHT22;5598;48.648;8.908;2023-06-14T06:04:36;14.40;73.20
11089;DHT22;5598;48.648;8.908;2023-06-14T06:07:03;14.50;73.30
11089;DHT22;5598;48.648;8.908;2023-06-14T06:09:30;14.60;73.50
11089;DHT22;5598;48.648;8.908;2023-06-14T06:11:57;14.70;74.20
11089;DHT22;5598;48.648;8.908;2023-06-14T06:14:25;14.90;74.10
11089;DHT22;5598;48.648;8.908;2023-06-14T06:16:52;15.00;73.60
11089;DHT22;5598;48.648;8.908;2023-06-14T06:19:19;15.10;73.00
11089;DHT22;5598;48.648;8.908;2023-06-14T06:21:46;15.20;72.90
11089;DHT22;5598;48.648;8.908;2023-06-14T06:24:13;15.30;72.50
11089;DHT22;5598;48.648;8.908;2023-06-14T06:26:39;15.40;69.80
11089;DHT22;5598;48.648;8.908;2023-06-14T06:29:06;15.70;68.70
11089;DHT22;5598;48.648;8.908;2023-06-14T06:31:34;15.90;67.50
11089;DHT22;5598;48.648;8.908;2023-06-14T06:34:01;16.00;67.70
11089;DHT22;5598;48.648;8.908;2023-06-14T06:36:28;16.10;66.70
11089;DHT22;5598;48.648;8.908;2023-06-14T06:38:55;16.20;66.80
11089;DHT22;5598;48.648;8.908;2023-06-14T06:41:21;16.20;65.20
11089;DHT22;5598;48.648;8.908;2023-06-14T06:43:48;16.30;64.70
11089;DHT22;5598;48.648;8.908;2023-06-14T06:46:15;16.50;65.10
11089;DHT22;5598;48.648;8.908;2023-06-14T06:48:45;16.70;64.20
11089;DHT22;5598;48.648;8.908;2023-06-14T06:51:11;16.80;63.80
11089;DHT22;5598;48.648;8.908;2023-06-14T06:53:39;16.80;65.20
11089;DHT22;5598;48.648;8.908;2023-06-14T06:56:06;16.90;63.30
11089;DHT22;5598;48.648;8.908;2023-06-14T06:58:32;17.00;63.80
11089;DHT22;5598;48.648;8.908;2023-06-14T07:00:59;17.00;63.20
11089;DHT22;5598;48.648;8.908;2023-06-14T07:03:26;17.20;62.90
11089;DHT22;5598;48.648;8.908;2023-06-14T07:05:55;17.20;61.70
11089;DHT22;5598;48.648;8.908;2023-06-14T07:08:21;17.20;63.00
11089;DHT22;5598;48.648;8.908;2023-06-14T07:10:48;17.40;63.10
11089;DHT22;5598;48.648;8.908;2023-06-14T07:13:15;17.50;63.00
11089;DHT22;5598;48.648;8.908;2023-06-14T07:15:42;17.70;62.30
11089;DHT22;5598;48.648;8.908;2023-06-14T07:18:08;17.80;62.20
11089;DHT22;5598;48.648;8.908;2023-06-14T07:20:35;17.90;63.10
11089;DHT22;5598;48.648;8.908;2023-06-14T07:23:05;18.00;62.70
11089;DHT22;5598;48.648;8.908;2023-06-14T07:25:32;18.10;61.80
11089;DHT22;5598;48.648;8.908;2023-06-14T07:27:58;18.00;61.50
11089;DHT22;5598;48.648;8.908;2023-06-14T07:30:25;18.20;62.20
11089;DHT22;5598;48.648;8.908;2023-06-14T07:32:52;18.30;60.00
11089;DHT22;5598;48.648;8.908;2023-06-14T07:35:20;18.30;60.80
11089;DHT22;5598;48.648;8.908;2023-06-14T07:37:46;18.40;61.30
11089;DHT22;5598;48.648;8.908;2023-06-14T07:40:15;18.50;61.10
11089;DHT22;5598;48.648;8.908;2023-06-14T07:42:42;18.60;60.00
11089;DHT22;5598;48.648;8.908;2023-06-14T07:45:09;18.70;59.50
11089;DHT22;5598;48.648;8.908;2023-06-14T07:47:36;18.90;61.20
11089;DHT22;5598;48.648;8.908;2023-06-14T07:50:03;19.00;60.80
11089;DHT22;5598;48.648;8.908;2023-06-14T07:52:30;19.20;58.80
11089;DHT22;5598;48.648;8.908;2023-06-14T07:54:57;19.30;59.40
11089;DHT22;5598;48.648;8.908;2023-06-14T07:57:25;19.40;60.00
11089;DHT22;5598;48.648;8.908;2023-06-14T07:59:52;19.40;58.90
11089;DHT22;5598;48.648;8.908;2023-06-14T08:02:19;19.60;60.80
11089;DHT22;5598;48.648;8.908;2023-06-14T08:04:45;19.70;58.80
11089;DHT22;5598;48.648;8.908;2023-06-14T08:07:13;19.90;59.10
11089;DHT22;5598;48.648;8.908;2023-06-14T08:09:40;20.00;58.60
11089;DHT22;5598;48.648;8.908;2023-06-14T08:12:08;20.10;58.10
11089;DHT22;5598;48.648;8.908;2023-06-14T08:14:39;20.30;57.80
11089;DHT22;5598;48.648;8.908;2023-06-14T08:17:06;20.60;57.90
11089;DHT22;5598;48.648;8.908;2023-06-14T08:19:33;20.80;57.60
11089;DHT22;5598;48.648;8.908;2023-06-14T08:22:00;21.10;56.70
11089;DHT22;5598;48.648;8.908;2023-06-14T08:24:27;21.30;56.70
11089;DHT22;5598;48.648;8.908;2023-06-14T08:26:54;21.60;56.50
11089;DHT22;5598;48.648;8.908;2023-06-14T08:29:21;21.80;56.10
11089;DHT22;5598;48.648;8.908;2023-06-14T08:31:49;22.20;56.00
11089;DHT22;5598;48.648;8.908;2023-06-14T08:39:10;23.10;54.00
11089;DHT22;5598;48.648;8.908;2023-06-14T08:41:37;23.40;54.00
11089;DHT22;5598;48.648;8.908;2023-06-14T08:44:04;24.10;52.90
11089;DHT22;5598;48.648;8.908;2023-06-14T08:46:33;24.10;53.10
11089;DHT22;5598;48.648;8.908;2023-06-14T08:49:02;24.50;52.20
11089;DHT22;5598;48.648;8.908;2023-06-14T08:51:31;24.90;51.70
11089;DHT22;5598;48.648;8.908;2023-06-14T08:54:00;25.30;52.00
11089;DHT22;5598;48.648;8.908;2023-06-14T08:56:28;25.60;51.40
11089;DHT22;5598;48.648;8.908;2023-06-14T08:58:55;25.90;52.10
11089;DHT22;5598;48.648;8.908;2023-06-14T09:01:22;26.20;50.50
11089;DHT22;5598;48.648;8.908;2023-06-14T09:03:49;26.30;48.80
11089;DHT22;5598;48.648;8.908;2023-06-14T09:06:17;26.60;49.60
11089;DHT22;5598;48.648;8.908;2023-06-14T09:08:46;27.10;49.40
11089;DHT22;5598;48.648;8.908;2023-06-14T09:11:14;27.60;48.40
11089;DHT22;5598;48.648;8.908;2023-06-14T09:13:42;27.90;47.60
11089;DHT22;5598;48.648;8.908;2023-06-14T09:16:08;28.20;46.90
11089;DHT22;5598;48.648;8.908;2023-06-14T09:18:36;28.40;46.20
11089;DHT22;5598;48.648;8.908;2023-06-14T09:21:03;28.60;47.00
11089;DHT22;5598;48.648;8.908;2023-06-14T09:23:33;28.90;46.70
11089;DHT22;5598;48.648;8.908;2023-06-14T09:26:01;29.30;46.00
11089;DHT22;5598;48.648;8.908;2023-06-14T09:28:28;29.60;45.40
11089;DHT22;5598;48.648;8.908;2023-06-14T09:30:54;29.60;43.60
11089;DHT22;5598;48.648;8.908;2023-06-14T09:33:21;29.80;44.60
11089;DHT22;5598;48.648;8.908;2023-06-14T09:35:51;29.90;44.90
11089;DHT22;5598;48.648;8.908;2023-06-14T09:38:18;30.20;45.10
11089;DHT22;5598;48.648;8.908;2023-06-14T09:40:47;30.40;44.50
11089;DHT22;5598;48.648;8.908;2023-06-14T09:43:13;30.60;43.30
11089;DHT22;5598;48.648;8.908;2023-06-14T09:45:40;30.70;43.60
11089;DHT22;5598;48.648;8.908;2023-06-14T09:48:11;30.70;42.70
11089;DHT22;5598;48.648;8.908;2023-06-14T09:50:44;30.40;42.40
11089;DHT22;5598;48.648;8.908;2023-06-14T09:53:12;29.90;43.70
11089;DHT22;5598;48.648;8.908;2023-06-14T09:55:41;29.40;44.00
11089;DHT22;5598;48.648;8.908;2023-06-14T09:58:10;29.20;45.10
11089;DHT22;5598;48.648;8.908;2023-06-14T10:00:39;29.40;46.10
11089;DHT22;5598;48.648;8.908;2023-06-14T10:03:11;29.70;43.30
11089;DHT22;5598;48.648;8.908;2023-06-14T10:05:43;29.80;43.20
11089;DHT22;5598;48.648;8.908;2023-06-14T10:08:12;30.20;43.80
11089;DHT22;5598;48.648;8.908;2023-06-14T10:10:41;30.50;43.80
11089;DHT22;5598;48.648;8.908;2023-06-14T10:13:10;30.90;43.50
11089;DHT22;5598;48.648;8.908;2023-06-14T10:15:42;31.20;43.00
11089;DHT22;5598;48.648;8.908;2023-06-14T10:18:17;31.20;41.30
11089;DHT22;5598;48.648;8.908;2023-06-14T10:20:53;30.90;41.90
11089;DHT22;5598;48.648;8.908;2023-06-14T10:23:23;30.50;41.70
11089;DHT22;5598;48.648;8.908;2023-06-14T10:25:56;30.30;42.30
11089;DHT22;5598;48.648;8.908;2023-06-14T10:28:24;30.40;42.40
11089;DHT22;5598;48.648;8.908;2023-06-14T10:31:08;30.60;42.60
11089;DHT22;5598;48.648;8.908;2023-06-14T10:33:38;31.00;42.10
11089;DHT22;5598;48.648;8.908;2023-06-14T10:36:09;31.20;42.10
11089;DHT22;5598;48.648;8.908;2023-06-14T10:38:37;31.30;41.00
11089;DHT22;5598;48.648;8.908;2023-06-14T10:41:05;31.40;40.90
11089;DHT22;5598;48.648;8.908;2023-06-14T10:43:33;31.60;39.80
11089;DHT22;5598;48.648;8.908;2023-06-14T10:46:14;31.50;40.70
11089;DHT22;5598;48.648;8.908;2023-06-14T10:48:42;31.50;41.40
11089;DHT22;5598;48.648;8.908;2023-06-14T10:51:16;31.70;41.10
11089;DHT22;5598;48.648;8.908;2023-06-14T10:53:46;31.80;40.90
11089;DHT22;5598;48.648;8.908;2023-06-14T10:56:26;32.00;40.30
11089;DHT22;5598;48.648;8.908;2023-06-14T10:58:55;32.10;39.70
11089;DHT22;5598;48.648;8.908;2023-06-14T11:01:35;32.30;38.90
11089;DHT22;5598;48.648;8.908;2023-06-14T11:04:10;32.50;35.90
11089;DHT22;5598;48.648;8.908;2023-06-14T11:06:46;32.30;37.50
11089;DHT22;5598;48.648;8.908;2023-06-14T11:09:36;32.10;37.40
11089;DHT22;5598;48.648;8.908;2023-06-14T11:12:09;31.90;37.80
11089;DHT22;5598;48.648;8.908;2023-06-14T11:14:38;31.90;38.70
11089;DHT22;5598;48.648;8.908;2023-06-14T11:17:05;32.00;38.70
11089;DHT22;5598;48.648;8.908;2023-06-14T11:19:32;31.90;37.30
11089;DHT22;5598;48.648;8.908;2023-06-14T11:21:59;32.00;38.40
11089;DHT22;5598;48.648;8.908;2023-06-14T11:24:26;32.20;38.00
11089;DHT22;5598;48.648;8.908;2023-06-14T11:26:52;32.40;37.30
11089;DHT22;5598;48.648;8.908;2023-06-14T11:29:21;32.50;37.70
11089;DHT22;5598;48.648;8.908;2023-06-14T11:31:50;32.70;35.60
11089;DHT22;5598;48.648;8.908;2023-06-14T11:34:17;32.70;35.00
11089;DHT22;5598;48.648;8.908;2023-06-14T11:36:45;32.50;36.50
11089;DHT22;5598;48.648;8.908;2023-06-14T11:39:13;32.60;38.10
11089;DHT22;5598;48.648;8.908;2023-06-14T11:41:42;32.90;37.00
11089;DHT22;5598;48.648;8.908;2023-06-14T11:44:09;33.10;36.80
11089;DHT22;5598;48.648;8.908;2023-06-14T11:46:37;33.60;37.70
11089;DHT22;5598;48.648;8.908;2023-06-14T11:49:07;34.20;38.10
11089;DHT22;5598;48.648;8.908;2023-06-14T11:51:35;34.60;36.50
11089;DHT22;5598;48.648;8.908;2023-06-14T11:54:03;34.90;36.40
11089;DHT22;5598;48.648;8.908;2023-06-14T11:56:30;35.30;35.80
11089;DHT22;5598;48.648;8.908;2023-06-14T11:58:57;35.50;36.30
11089;DHT22;5598;48.648;8.908;2023-06-14T12:01:25;35.60;35.70
11089;DHT22;5598;48.648;8.908;2023-06-14T12:03:53;35.70;35.40
11089;DHT22;5598;48.648;8.908;2023-06-14T12:06:28;35.50;36.50
11089;DHT22;5598;48.648;8.908;2023-06-14T12:08:58;35.50;37.80
11089;DHT22;5598;48.648;8.908;2023-06-14T12:11:31;35.40;37.70
11089;DHT22;5598;48.648;8.908;2023-06-14T12:13:58;35.30;37.50
11089;DHT22;5598;48.648;8.908;2023-06-14T12:16:30;35.10;36.90
11089;DHT22;5598;48.648;8.908;2023-06-14T12:19:00;35.00;36.70
11089;DHT22;5598;48.648;8.908;2023-06-14T12:21:28;34.90;36.90
11089;DHT22;5598;48.648;8.908;2023-06-14T12:23:55;34.70;35.70
11089;DHT22;5598;48.648;8.908;2023-06-14T12:26:24;34.50;36.00
11089;DHT22;5598;48.648;8.908;2023-06-14T12:28:52;34.30;36.90
11089;DHT22;5598;48.648;8.908;2023-06-14T12:31:19;34.20;37.10
11089;DHT22;5598;48.648;8.908;2023-06-14T12:33:46;33.80;37.50
11089;DHT22;5598;48.648;8.908;2023-06-14T12:36:14;33.80;38.30
11089;DHT22;5598;48.648;8.908;2023-06-14T12:38:43;33.60;36.70
11089;DHT22;5598;48.648;8.908;2023-06-14T12:41:11;33.30;37.00
11089;DHT22;5598;48.648;8.908;2023-06-14T12:43:39;33.20;38.20
11089;DHT22;5598;48.648;8.908;2023-06-14T12:46:06;33.10;39.00
11089;DHT22;5598;48.648;8.908;2023-06-14T12:48:33;33.20;38.00
11089;DHT22;5598;48.648;8.908;2023-06-14T12:51:00;33.20;38.80
11089;DHT22;5598;48.648;8.908;2023-06-14T12:53:26;33.20;38.50
11089;DHT22;5598;48.648;8.908;2023-06-14T12:55:55;33.20;38.70
11089;DHT22;5598;48.648;8.908;2023-06-14T12:58:21;33.20;38.10
11089;DHT22;5598;48.648;8.908;2023-06-14T13:00:49;33.30;38.10
11089;DHT22;5598;48.648;8.908;2023-06-14T13:03:16;33.20;38.50
11089;DHT22;5598;48.648;8.908;2023-06-14T13:05:43;33.10;38.80
11089;DHT22;5598;48.648;8.908;2023-06-14T13:08:09;33.00;38.30
11089;DHT22;5598;48.648;8.908;2023-06-14T13:10:36;32.80;39.20
11089;DHT22;5598;48.648;8.908;2023-06-14T13:13:04;32.80;38.10
11089;DHT22;5598;48.648;8.908;2023-06-14T13:15:33;32.60;37.30
11089;DHT22;5598;48.648;8.908;2023-06-14T13:18:00;32.60;39.30
11089;DHT22;5598;48.648;8.908;2023-06-14T13:20:28;32.50;38.90
11089;DHT22;5598;48.648;8.908;2023-06-14T13:22:55;32.40;39.10
11089;DHT22;5598;48.648;8.908;2023-06-14T13:25:22;32.10;39.40
11089;DHT22;5598;48.648;8.908;2023-06-14T13:27:49;31.90;39.40
11089;DHT22;5598;48.648;8.908;2023-06-14T13:30:17;31.90;38.60
11089;DHT22;5598;48.648;8.908;2023-06-14T13:32:44;31.80;39.10
11089;DHT22;5598;48.648;8.908;2023-06-14T13:35:11;31.70;38.50
11089;DHT22;5598;48.648;8.908;2023-06-14T13:37:37;31.70;40.00
11089;DHT22;5598;48.648;8.908;2023-06-14T13:40:06;31.60;39.30
11089;DHT22;5598;48.648;8.908;2023-06-14T13:42:33;31.80;39.40
11089;DHT22;5598;48.648;8.908;2023-06-14T13:45:01;31.80;39.80
11089;DHT22;5598;48.648;8.908;2023-06-14T13:47:29;31.80;38.60
11089;DHT22;5598;48.648;8.908;2023-06-14T13:49:56;31.50;38.40
11089;DHT22;5598;48.648;8.908;2023-06-14T13:52:23;31.40;39.30
11089;DHT22;5598;48.648;8.908;2023-06-14T13:54:50;31.30;39.80
11089;DHT22;5598;48.648;8.908;2023-06-14T13:57:17;31.30;40.40
11089;DHT22;5598;48.648;8.908;2023-06-14T13:59:44;31.30;37.80
11089;DHT22;5598;48.648;8.908;2023-06-14T14:02:11;31.10;39.50
11089;DHT22;5598;48.648;8.908;2023-06-14T14:04:40;31.00;39.80
11089;DHT22;5598;48.648;8.908;2023-06-14T14:07:07;31.00;38.80
11089;DHT22;5598;48.648;8.908;2023-06-14T14:09:35;31.00;39.40
11089;DHT22;5598;48.648;8.908;2023-06-14T14:12:03;30.90;40.30
11089;DHT22;5598;48.648;8.908;2023-06-14T14:14:31;30.90;41.30
11089;DHT22;5598;48.648;8.908;2023-06-14T14:16:58;31.00;40.10
11089;DHT22;5598;48.648;8.908;2023-06-14T14:19:25;30.90;38.60
11089;DHT22;5598;48.648;8.908;2023-06-14T14:21:53;31.00;39.10
11089;DHT22;5598;48.648;8.908;2023-06-14T14:24:20;31.00;39.10
11089;DHT22;5598;48.648;8.908;2023-06-14T14:26:47;30.90;38.60
11089;DHT22;5598;48.648;8.908;2023-06-14T14:29:15;30.80;40.40
11089;DHT22;5598;48.648;8.908;2023-06-14T14:31:42;30.80;38.90
11089;DHT22;5598;48.648;8.908;2023-06-14T14:34:09;30.70;39.10
11089;DHT22;5598;48.648;8.908;2023-06-14T14:36:36;30.70;38.60
11089;DHT22;5598;48.648;8.908;2023-06-14T14:39:08;30.60;38.80
11089;DHT22;5598;48.648;8.908;2023-06-14T14:41:35;30.70;40.40
11089;DHT22;5598;48.648;8.908;2023-06-14T14:44:03;30.70;39.60
11089;DHT22;5598;48.648;8.908;2023-06-14T14:46:30;30.80;40.80
11089;DHT22;5598;48.648;8.908;2023-06-14T14:48:58;30.70;38.70
11089;DHT22;5598;48.648;8.908;2023-06-14T14:51:25;30.60;39.00
11089;DHT22;5598;48.648;8.908;2023-06-14T14:53:52;30.50;39.60
11089;DHT22;5598;48.648;8.908;2023-06-14T14:56:22;30.30;39.50
11089;DHT22;5598;48.648;8.908;2023-06-14T14:58:48;30.20;38.30
11089;DHT22;5598;48.648;8.908;2023-06-14T15:01:16;30.20;40.10
11089;DHT22;5598;48.648;8.908;2023-06-14T15:03:43;30.20;39.10
11089;DHT22;5598;48.648;8.908;2023-06-14T15:06:09;30.00;39.40
11089;DHT22;5598;48.648;8.908;2023-06-14T15:08:36;30.00;40.60
11089;DHT22;5598;48.648;8.908;2023-06-14T15:11:03;30.00;40.50
11089;DHT22;5598;48.648;8.908;2023-06-14T15:13:31;30.10;40.00
11089;DHT22;5598;48.648;8.908;2023-06-14T15:15:58;30.10;41.10
11089;DHT22;5598;48.648;8.908;2023-06-14T15:18:25;30.10;41.50
11089;DHT22;5598;48.648;8.908;2023-06-14T15:20:51;30.10;41.70
11089;DHT22;5598;48.648;8.908;2023-06-14T15:23:18;30.00;41.60
11089;DHT22;5598;48.648;8.908;2023-06-14T15:25:46;30.00;41.50
11089;DHT22;5598;48.648;8.908;2023-06-14T15:28:13;30.00;41.30
11089;DHT22;5598;48.648;8.908;2023-06-14T15:30:41;29.90;40.90
11089;DHT22;5598;48.648;8.908;2023-06-14T15:33:08;29.90;41.80
11089;DHT22;5598;48.648;8.908;2023-06-14T15:35:35;29.90;41.30
11089;DHT22;5598;48.648;8.908;2023-06-14T15:38:02;29.90;41.50
11089;DHT22;5598;48.648;8.908;2023-06-14T15:40:28;29.80;41.40
11089;DHT22;5598;48.648;8.908;2023-06-14T15:42:55;30.70;42.10
11089;DHT22;5598;48.648;8.908;2023-06-14T15:45:22;29.60;40.80
11089;DHT22;5598;48.648;8.908;2023-06-14T15:47:50;29.60;40.50
11089;DHT22;5598;48.648;8.908;2023-06-14T15:50:17;29.40;40.10
11089;DHT22;5598;48.648;8.908;2023-06-14T15:52:44;29.40;41.00
11089;DHT22;5598;48.648;8.908;2023-06-14T15:55:12;29.40;41.90